createdAt,value
2018-12-12T00:00:23.655Z,13.87
2018-12-12T00:02:56.720Z,12.90
2018-12-12T00:05:29.647Z,15.87
2018-12-12T00:08:01.966Z,12.80
2018-12-12T00:10:39.695Z,14.70
2018-12-12T00:13:10.828Z,11.30
2018-12-12T00:15:41.964Z,15.53
2018-12-12T00:18:13.268Z,12.57
2018-12-12T00:20:44.398Z,16.60
2018-12-12T00:23:15.536Z,10.63
2018-12-12T00:25:46.640Z,15.47
2018-12-12T00:28:17.804Z,14.10
2018-12-12T00:30:49.003Z,9.90
2018-12-12T00:33:20.128Z,13.43
2018-12-12T00:35:51.261Z,16.10
2018-12-12T00:38:22.390Z,13.80
2018-12-12T00:40:53.512Z,12.20
2018-12-12T00:43:24.656Z,17.00
2018-12-12T00:45:55.882Z,14.27
2018-12-12T00:48:27.129Z,14.07
2018-12-12T00:50:58.254Z,13.10
2018-12-12T00:53:29.385Z,13.07
2018-12-12T00:56:00.492Z,13.40
2018-12-12T00:58:31.507Z,15.70
2018-12-12T01:01:02.620Z,13.87
2018-12-12T01:03:34.100Z,11.83
2018-12-12T01:06:05.111Z,11.67
2018-12-12T01:08:36.252Z,15.57
2018-12-12T01:11:12.601Z,14.33
2018-12-12T01:13:43.892Z,11.40
2018-12-12T01:16:14.992Z,13.63
2018-12-12T01:18:46.117Z,11.30
2018-12-12T01:21:17.316Z,11.73
2018-12-12T01:23:48.625Z,9.77
2018-12-12T01:26:19.591Z,9.50
2018-12-12T01:28:51.352Z,11.43
2018-12-12T01:31:22.600Z,11.50
2018-12-12T01:33:53.723Z,12.37
2018-12-12T01:36:24.828Z,13.00
2018-12-12T01:38:56.012Z,15.90
2018-12-12T01:41:27.123Z,11.67
2018-12-12T01:43:58.182Z,14.87
2018-12-12T01:46:29.302Z,11.13
2018-12-12T01:49:00.292Z,12.30
2018-12-12T01:51:31.392Z,14.37
2018-12-12T01:54:02.545Z,17.90
2018-12-12T01:56:33.638Z,12.47
2018-12-12T01:59:04.691Z,14.07
2018-12-12T02:01:35.856Z,14.33
2018-12-12T02:04:06.993Z,12.07
2018-12-12T02:06:38.005Z,16.63
2018-12-12T02:09:09.137Z,13.87
2018-12-12T02:11:42.217Z,12.57
2018-12-12T02:14:13.379Z,13.63
2018-12-12T02:16:44.501Z,13.03
2018-12-12T02:19:15.691Z,14.43
2018-12-12T02:21:46.760Z,15.67
2018-12-12T02:24:17.953Z,12.10
2018-12-12T02:26:49.092Z,14.03
2018-12-12T02:29:20.300Z,16.30
2018-12-12T02:31:51.418Z,12.97
2018-12-12T02:34:29.149Z,18.47
2018-12-12T02:37:00.260Z,13.40
2018-12-12T02:39:31.388Z,15.17
2018-12-12T02:42:02.501Z,13.73
2018-12-12T02:44:33.740Z,17.80
2018-12-12T02:47:04.844Z,14.83
2018-12-12T02:49:35.979Z,13.43
2018-12-12T02:52:07.089Z,13.23
2018-12-12T02:54:44.884Z,13.33
2018-12-12T02:57:15.881Z,10.63
2018-12-12T02:59:47.017Z,13.90
2018-12-12T03:02:18.150Z,16.60
2018-12-12T03:04:49.295Z,12.43
2018-12-12T03:07:20.521Z,13.17
2018-12-12T03:09:51.773Z,13.43
2018-12-12T03:12:22.876Z,16.03
2018-12-12T03:14:53.923Z,16.40
2018-12-12T03:17:24.916Z,16.37
2018-12-12T03:19:56.062Z,14.33
2018-12-12T03:22:27.157Z,18.77
2018-12-12T03:24:58.275Z,13.73
2018-12-12T03:27:29.459Z,17.80
2018-12-12T03:30:00.575Z,16.10
2018-12-12T03:32:31.703Z,13.60
2018-12-12T03:35:02.816Z,15.13
2018-12-12T03:37:34.870Z,13.67
2018-12-12T03:40:07.357Z,14.53
2018-12-12T03:42:38.989Z,14.17
2018-12-12T03:45:10.122Z,16.27
2018-12-12T03:47:41.375Z,15.90
2018-12-12T03:50:12.500Z,12.77
2018-12-12T03:52:43.588Z,13.30
2018-12-12T03:55:14.718Z,13.83
2018-12-12T03:57:45.818Z,12.70
2018-12-12T04:00:17.009Z,12.47
2018-12-12T04:02:48.129Z,16.23
2018-12-12T04:05:19.250Z,14.37
2018-12-12T04:07:50.348Z,17.23
2018-12-12T04:10:21.470Z,15.43
2018-12-12T04:12:52.608Z,16.77
2018-12-12T04:15:23.727Z,14.17
2018-12-12T04:17:54.744Z,15.00
2018-12-12T04:20:25.839Z,15.30
2018-12-12T04:22:59.309Z,14.80
2018-12-12T04:25:30.410Z,17.90
2018-12-12T04:28:01.428Z,14.53
2018-12-12T04:30:32.592Z,14.67
2018-12-12T04:33:03.812Z,14.67
2018-12-12T04:35:34.921Z,12.30
2018-12-12T04:38:06.036Z,12.70
2018-12-12T04:40:37.128Z,15.63
2018-12-12T04:43:08.433Z,12.23
2018-12-12T04:45:39.517Z,15.50
2018-12-12T04:48:10.633Z,10.00
2018-12-12T04:50:41.722Z,13.30
2018-12-12T04:53:12.824Z,12.07
2018-12-12T04:55:43.903Z,12.20
2018-12-12T04:58:15.012Z,13.57
2018-12-12T05:00:46.132Z,11.77
2018-12-12T05:03:17.260Z,15.23
2018-12-12T05:05:48.346Z,12.47
2018-12-12T05:08:19.542Z,12.33
2018-12-12T05:10:50.657Z,13.20
2018-12-12T05:13:21.768Z,14.63
2018-12-12T05:15:52.872Z,17.13
2018-12-12T05:18:23.875Z,15.77
2018-12-12T05:20:55.069Z,14.53
2018-12-12T05:23:26.169Z,13.27
2018-12-12T05:25:57.303Z,16.13
2018-12-12T05:28:28.480Z,14.40
2018-12-12T05:30:59.676Z,13.07
2018-12-12T05:33:30.801Z,14.47
2018-12-12T05:36:02.068Z,17.23
2018-12-12T05:38:34.432Z,18.07
2018-12-12T05:41:05.520Z,18.90
2018-12-12T05:43:36.627Z,17.73
2018-12-12T05:46:07.985Z,14.67
2018-12-12T05:48:39.086Z,19.53
2018-12-12T05:51:10.524Z,24.80
2018-12-12T05:53:41.677Z,40.50
2018-12-12T05:56:14.239Z,21.67
2018-12-12T05:58:45.640Z,24.40
2018-12-12T06:01:16.743Z,19.17
2018-12-12T06:03:47.898Z,16.07
2018-12-12T06:06:19.228Z,17.27
2018-12-12T06:08:50.460Z,15.53
2018-12-12T06:11:21.719Z,19.23
2018-12-12T06:13:53.000Z,21.07
2018-12-12T06:16:24.098Z,25.23
2018-12-12T06:18:55.120Z,19.17
2018-12-12T06:21:26.212Z,18.23
2018-12-12T06:23:57.337Z,16.17
2018-12-12T06:26:28.843Z,15.37
2018-12-12T06:28:59.924Z,22.80
2018-12-12T06:31:31.101Z,15.37
2018-12-12T06:34:02.218Z,16.10
2018-12-12T06:36:33.297Z,18.33
2018-12-12T06:39:06.524Z,15.23
2018-12-12T06:41:38.591Z,13.83
2018-12-12T06:44:09.729Z,12.53
2018-12-12T06:46:40.808Z,18.53
2018-12-12T06:49:11.913Z,13.53
2018-12-12T06:51:42.994Z,15.27
2018-12-12T06:54:14.195Z,16.03
2018-12-12T06:56:45.388Z,15.60
2018-12-12T06:59:16.405Z,15.57
2018-12-12T07:01:47.625Z,15.83
2018-12-12T07:04:18.608Z,17.77
2018-12-12T07:06:49.591Z,14.20
2018-12-12T07:09:21.751Z,12.80
2018-12-12T07:11:52.877Z,12.27
2018-12-12T07:14:24.139Z,16.13
2018-12-12T07:16:55.184Z,13.47
2018-12-12T07:19:26.329Z,18.57
2018-12-12T07:21:57.428Z,19.03
2018-12-12T07:24:28.935Z,18.83
2018-12-12T07:27:00.265Z,16.83
2018-12-12T07:29:32.391Z,16.83
2018-12-12T07:32:03.788Z,19.60
2018-12-12T07:34:35.016Z,16.57
2018-12-12T07:37:06.319Z,16.23
2018-12-12T07:39:37.426Z,16.90
2018-12-12T07:42:08.632Z,23.60
2018-12-12T07:44:57.272Z,20.63
2018-12-12T07:47:30.311Z,19.13
2018-12-12T07:50:20.086Z,15.63
2018-12-12T07:53:08.053Z,11.83
2018-12-12T07:55:40.188Z,14.80
2018-12-12T07:58:11.308Z,13.50
2018-12-12T08:00:42.520Z,16.13
2018-12-12T08:03:13.624Z,12.70
2018-12-12T08:05:44.608Z,17.40
2018-12-12T08:08:18.791Z,15.90
2018-12-12T08:10:49.888Z,18.83
2018-12-12T08:13:20.972Z,19.63
2018-12-12T08:15:52.108Z,18.53
2018-12-12T08:18:23.199Z,15.13
2018-12-12T08:20:54.303Z,16.70
2018-12-12T08:23:25.812Z,15.97
2018-12-12T08:25:57.110Z,18.27
2018-12-12T08:28:28.262Z,13.83
2018-12-12T08:30:59.369Z,19.83
2018-12-12T08:33:30.624Z,15.93
2018-12-12T08:36:02.795Z,17.97
2018-12-12T08:38:33.890Z,19.23
2018-12-12T08:41:04.987Z,18.73
2018-12-12T08:43:36.071Z,15.93
2018-12-12T08:46:08.296Z,23.33
2018-12-12T08:48:40.640Z,13.60
2018-12-12T08:51:11.917Z,17.83
2018-12-12T08:53:43.060Z,16.00
2018-12-12T08:56:14.176Z,18.40
2018-12-12T08:58:45.147Z,22.27
2018-12-12T09:01:16.276Z,17.37
2018-12-12T09:03:47.368Z,17.37
2018-12-12T09:06:18.484Z,21.43
2018-12-12T09:08:49.481Z,18.27
2018-12-12T09:11:20.628Z,20.63
2018-12-12T09:13:51.742Z,20.37
2018-12-12T09:16:22.927Z,16.20
2018-12-12T09:18:53.916Z,17.57
2018-12-12T09:21:25.044Z,18.20
2018-12-12T09:23:56.128Z,19.17
2018-12-12T09:26:27.248Z,19.23
2018-12-12T09:28:58.403Z,19.43
2018-12-12T09:31:31.401Z,18.70
2018-12-12T09:34:04.459Z,16.20
2018-12-12T09:36:35.623Z,21.23
2018-12-12T09:39:08.172Z,17.30
2018-12-12T09:41:41.313Z,15.63
2018-12-12T09:44:12.572Z,19.43
2018-12-12T09:46:43.743Z,17.60
2018-12-12T09:49:14.883Z,20.70
2018-12-12T09:51:47.955Z,19.57
2018-12-12T09:54:20.908Z,15.63
2018-12-12T09:56:52.071Z,15.40
2018-12-12T09:59:23.151Z,20.60
2018-12-12T10:01:54.264Z,25.83
2018-12-12T10:04:25.354Z,18.57
2018-12-12T10:06:56.464Z,19.93
2018-12-12T10:09:27.558Z,19.07
2018-12-12T10:11:58.747Z,16.50
2018-12-12T10:14:29.855Z,21.30
2018-12-12T10:17:00.986Z,16.20
2018-12-12T10:19:32.133Z,14.30
2018-12-12T10:22:03.368Z,14.27
2018-12-12T10:24:34.941Z,13.90
2018-12-12T10:27:05.955Z,16.63
2018-12-12T10:29:38.353Z,19.33
2018-12-12T10:32:09.556Z,13.60
2018-12-12T10:34:40.650Z,12.87
2018-12-12T10:37:11.772Z,12.53
2018-12-12T10:39:42.902Z,13.23
2018-12-12T10:42:14.293Z,13.47
2018-12-12T10:44:45.436Z,9.93
2018-12-12T10:47:16.443Z,11.03
2018-12-12T10:49:47.617Z,11.33
2018-12-12T10:52:18.887Z,9.63
2018-12-12T10:54:50.010Z,9.93
2018-12-12T10:57:21.105Z,7.30
2018-12-12T10:59:52.197Z,8.97
2018-12-12T11:02:28.564Z,8.33
2018-12-12T11:04:59.993Z,9.97
2018-12-12T11:07:31.092Z,6.50
2018-12-12T11:10:02.075Z,9.37
2018-12-12T11:12:34.413Z,7.77
2018-12-12T11:15:12.143Z,9.90
2018-12-12T11:17:43.242Z,7.57
2018-12-12T11:20:14.312Z,9.43
2018-12-12T11:22:45.329Z,8.03
2018-12-12T11:25:16.418Z,7.07
2018-12-12T11:27:47.532Z,8.63
2018-12-12T11:30:18.625Z,7.23
2018-12-12T11:32:49.808Z,7.17
2018-12-12T11:35:20.891Z,6.83
2018-12-12T11:37:52.044Z,7.53
2018-12-12T11:40:23.124Z,11.27
2018-12-12T11:42:54.920Z,7.23
2018-12-12T11:45:28.059Z,6.27
2018-12-12T11:47:59.278Z,8.30
2018-12-12T11:50:30.353Z,8.97
2018-12-12T11:53:01.451Z,7.00
2018-12-12T11:55:33.602Z,7.07
2018-12-12T11:58:04.773Z,8.10
2018-12-12T12:00:35.851Z,9.30
2018-12-12T12:03:06.951Z,7.90
2018-12-12T12:05:38.036Z,6.50
2018-12-12T12:08:09.151Z,6.03
2018-12-12T12:10:40.230Z,6.50
2018-12-12T12:13:13.308Z,5.50
2018-12-12T12:15:44.576Z,5.63
2018-12-12T12:18:15.725Z,10.00
2018-12-12T12:20:46.939Z,8.30
2018-12-12T12:23:18.276Z,7.97
2018-12-12T12:25:49.368Z,7.13
2018-12-12T12:28:20.581Z,9.27
2018-12-12T12:30:51.753Z,8.20
2018-12-12T12:33:22.879Z,7.90
2018-12-12T12:35:53.958Z,8.63
2018-12-12T12:38:25.747Z,7.20
2018-12-12T12:40:56.833Z,7.37
2018-12-12T12:43:27.984Z,7.00
2018-12-12T12:45:59.064Z,7.40
2018-12-12T12:48:30.173Z,7.67
2018-12-12T12:51:01.500Z,6.90
2018-12-12T12:53:32.599Z,8.30
2018-12-12T12:56:04.740Z,7.23
2018-12-12T12:58:35.841Z,6.43
2018-12-12T13:01:06.920Z,7.10
2018-12-12T13:03:38.051Z,7.80
2018-12-12T13:06:09.135Z,10.13
2018-12-12T13:08:40.274Z,7.60
2018-12-12T13:11:14.840Z,8.13
2018-12-12T13:13:44.496Z,8.33
2018-12-12T13:16:15.483Z,8.07
2018-12-12T13:18:53.076Z,7.80
2018-12-12T13:21:24.167Z,7.83
2018-12-12T13:23:55.324Z,6.37
2018-12-12T13:26:26.447Z,6.83
2018-12-12T13:28:57.753Z,7.10
2018-12-12T13:31:28.832Z,6.17
2018-12-12T13:33:59.938Z,6.10
2018-12-12T13:36:31.036Z,6.53
2018-12-12T13:39:02.332Z,6.37
2018-12-12T13:41:35.345Z,7.47
2018-12-12T13:44:06.484Z,5.43
2018-12-12T13:46:44.374Z,6.43
2018-12-12T13:49:16.133Z,6.43
2018-12-12T13:51:47.187Z,5.70
2018-12-12T13:54:18.274Z,8.60
2018-12-12T13:56:49.356Z,6.00
2018-12-12T13:59:20.457Z,5.90
2018-12-12T14:01:51.531Z,5.70
2018-12-12T14:04:22.982Z,5.83
2018-12-12T14:06:54.053Z,5.97
2018-12-12T14:09:26.350Z,6.10
2018-12-12T14:11:57.793Z,7.33
2018-12-12T14:14:28.981Z,5.57
2018-12-12T14:16:59.937Z,8.20
2018-12-12T14:19:31.071Z,10.27
2018-12-12T14:22:02.250Z,5.33
2018-12-12T14:24:33.532Z,5.47
2018-12-12T14:27:04.737Z,7.53
2018-12-12T14:29:35.729Z,6.17
2018-12-12T14:32:13.556Z,6.87
2018-12-12T14:34:44.668Z,5.67
2018-12-12T14:37:15.649Z,5.80
2018-12-12T14:39:46.965Z,6.73
2018-12-12T14:42:18.256Z,6.83
2018-12-12T14:44:49.388Z,5.13
2018-12-12T14:47:20.481Z,7.50
2018-12-12T14:49:51.492Z,6.30
2018-12-12T14:52:22.581Z,6.30
2018-12-12T14:54:53.612Z,6.87
2018-12-12T14:57:24.757Z,5.43
2018-12-12T14:59:55.863Z,6.37
2018-12-12T15:02:26.944Z,5.83
2018-12-12T15:04:58.068Z,5.97
2018-12-12T15:07:29.123Z,6.13
2018-12-12T15:10:00.259Z,6.20
2018-12-12T15:12:31.467Z,6.37
2018-12-12T15:15:02.665Z,6.33
2018-12-12T15:17:33.856Z,5.07
2018-12-12T15:20:05.437Z,8.47
2018-12-12T15:22:36.576Z,7.13
2018-12-12T15:25:07.685Z,5.30
2018-12-12T15:27:38.775Z,5.23
2018-12-12T15:30:09.944Z,6.83
2018-12-12T15:32:41.087Z,5.73
2018-12-12T15:35:12.264Z,5.63
2018-12-12T15:37:43.348Z,7.50
2018-12-12T15:40:14.452Z,7.83
2018-12-12T15:42:46.624Z,6.03
2018-12-12T15:45:17.742Z,5.83
2018-12-12T15:47:48.825Z,6.77
2018-12-12T15:50:19.827Z,5.20
2018-12-12T15:52:50.970Z,5.43
2018-12-12T15:55:22.084Z,5.13
2018-12-12T15:57:53.124Z,5.23
2018-12-12T16:00:26.363Z,5.83
2018-12-12T16:02:57.932Z,5.93
2018-12-12T16:05:29.101Z,6.53
2018-12-12T16:08:00.188Z,6.10
2018-12-12T16:10:31.291Z,4.97
2018-12-12T16:13:02.376Z,5.30
2018-12-12T16:15:33.514Z,6.03
2018-12-12T16:18:04.663Z,6.27
2018-12-12T16:20:35.937Z,6.03
2018-12-12T16:23:07.088Z,5.77
2018-12-12T16:25:38.199Z,5.63
2018-12-12T16:28:09.279Z,6.27
2018-12-12T16:30:40.447Z,5.93
2018-12-12T16:33:11.515Z,6.00
2018-12-12T16:35:42.771Z,7.20
2018-12-12T16:38:13.848Z,7.10
2018-12-12T16:40:44.844Z,5.80
2018-12-12T16:43:15.932Z,5.73
2018-12-12T16:45:49.003Z,5.50
2018-12-12T16:48:20.143Z,4.77
2018-12-12T16:50:52.328Z,5.97
2018-12-12T16:53:23.599Z,6.03
2018-12-12T16:55:54.712Z,5.53
2018-12-12T16:58:25.786Z,6.03
2018-12-12T17:00:57.190Z,4.83
2018-12-12T17:03:28.382Z,5.40
2018-12-12T17:05:59.611Z,5.93
2018-12-12T17:08:30.696Z,5.20
2018-12-12T17:11:01.796Z,5.90
2018-12-12T17:13:32.941Z,5.50
2018-12-12T17:16:04.397Z,6.00
2018-12-12T17:18:35.461Z,5.53
2018-12-12T17:21:06.569Z,5.60
2018-12-12T17:23:37.860Z,5.87
2018-12-12T17:26:08.821Z,5.73
2018-12-12T17:28:39.988Z,4.90
2018-12-12T17:31:11.164Z,6.33
2018-12-12T17:33:42.267Z,6.33
2018-12-12T17:36:13.453Z,5.83
2018-12-12T17:38:45.600Z,7.50
2018-12-12T17:41:16.688Z,5.87
2018-12-12T17:43:50.609Z,5.77
2018-12-12T17:46:21.681Z,5.70
2018-12-12T17:48:52.829Z,6.17
2018-12-12T17:51:23.902Z,5.27
2018-12-12T17:53:55.136Z,4.97
2018-12-12T17:56:26.143Z,4.80
2018-12-12T17:58:57.343Z,4.70
2018-12-12T18:01:28.559Z,4.70
2018-12-12T18:04:01.660Z,6.73
2018-12-12T18:06:35.241Z,6.47
2018-12-12T18:09:08.540Z,5.73
2018-12-12T18:11:41.580Z,4.37
2018-12-12T18:14:13.772Z,3.97
2018-12-12T18:16:46.815Z,4.83
2018-12-12T18:19:17.907Z,4.27
2018-12-12T18:21:49.054Z,4.77
2018-12-12T18:24:22.124Z,5.07
2018-12-12T18:26:53.195Z,5.27
2018-12-12T18:29:24.284Z,4.97
2018-12-12T18:31:57.328Z,5.87
2018-12-12T18:34:49.137Z,5.53
2018-12-12T18:37:21.317Z,6.23
2018-12-12T18:39:52.475Z,5.20
2018-12-12T18:42:25.559Z,5.50
2018-12-12T18:44:58.632Z,5.53
2018-12-12T18:47:29.611Z,7.80
2018-12-12T18:50:00.774Z,7.00
2018-12-12T18:52:33.796Z,5.77
2018-12-12T18:55:05.043Z,5.50
2018-12-12T18:57:38.068Z,7.60
2018-12-12T19:00:10.327Z,6.23
2018-12-12T19:02:41.468Z,5.23
2018-12-12T19:05:12.576Z,5.00
2018-12-12T19:07:43.664Z,5.37
2018-12-12T19:10:14.657Z,4.90
2018-12-12T19:12:45.614Z,4.33
2018-12-12T19:15:16.799Z,5.50
2018-12-12T19:17:47.868Z,3.77
2018-12-12T19:20:19.025Z,5.27
2018-12-12T19:22:50.089Z,4.60
2018-12-12T19:25:21.073Z,3.90
2018-12-12T19:27:52.020Z,4.30
2018-12-12T19:30:23.108Z,3.83
2018-12-12T19:32:54.180Z,4.20
2018-12-12T19:35:25.270Z,4.87
2018-12-12T19:37:56.331Z,3.80
2018-12-12T19:40:27.324Z,4.00
2018-12-12T19:42:58.414Z,3.50
2018-12-12T19:45:29.596Z,4.27
2018-12-12T19:48:01.083Z,3.43
2018-12-12T19:50:32.167Z,3.53
2018-12-12T19:53:03.328Z,4.10
2018-12-12T19:55:34.439Z,3.47
2018-12-12T19:58:05.708Z,4.73
2018-12-12T20:00:37.272Z,3.33
2018-12-12T20:03:08.344Z,3.57
2018-12-12T20:05:41.348Z,3.80
2018-12-12T20:08:13.559Z,3.90
2018-12-12T20:10:44.765Z,3.27
2018-12-12T20:13:15.897Z,2.97
2018-12-12T20:15:47.329Z,3.03
2018-12-12T20:18:18.400Z,2.73
2018-12-12T20:20:49.490Z,3.20
2018-12-12T20:23:20.686Z,3.30
2018-12-12T20:25:51.774Z,3.13
2018-12-12T20:28:22.904Z,3.47
2018-12-12T20:30:53.999Z,3.97
2018-12-12T20:33:25.086Z,3.80
2018-12-12T20:35:56.149Z,3.57
2018-12-12T20:38:27.291Z,3.67
2018-12-12T20:40:58.391Z,3.50
2018-12-12T20:43:29.516Z,3.93
2018-12-12T20:46:00.694Z,3.60
2018-12-12T20:48:31.775Z,4.70
2018-12-12T20:51:02.919Z,5.57
2018-12-12T20:53:34.038Z,4.33
2018-12-12T20:56:05.216Z,5.43
2018-12-12T20:58:36.442Z,4.60
2018-12-12T21:01:07.680Z,4.40
2018-12-12T21:03:39.109Z,5.30
2018-12-12T21:06:10.243Z,4.50
2018-12-12T21:08:41.298Z,5.17
2018-12-12T21:11:12.464Z,4.63
2018-12-12T21:13:44.389Z,4.10
2018-12-12T21:16:15.568Z,6.17
2018-12-12T21:18:46.686Z,4.37
2018-12-12T21:21:17.883Z,4.37
2018-12-12T21:23:49.003Z,4.10
2018-12-12T21:26:20.199Z,4.00
2018-12-12T21:28:51.288Z,4.37
2018-12-12T21:31:22.603Z,4.03
2018-12-12T21:33:53.976Z,5.00
2018-12-12T21:36:25.152Z,5.40
2018-12-12T21:38:56.217Z,4.13
2018-12-12T21:41:27.339Z,4.17
2018-12-12T21:43:58.399Z,4.53
2018-12-12T21:46:29.532Z,4.43
2018-12-12T21:49:00.648Z,4.73
2018-12-12T21:51:31.743Z,4.63
2018-12-12T21:54:02.851Z,4.33
2018-12-12T21:56:33.951Z,4.47
2018-12-12T21:59:04.917Z,5.00
2018-12-12T22:01:36.009Z,5.10
2018-12-12T22:04:07.106Z,5.03
2018-12-12T22:06:38.285Z,5.00
2018-12-12T22:09:09.977Z,4.50
2018-12-12T22:11:42.606Z,4.17
2018-12-12T22:14:13.680Z,4.70
2018-12-12T22:16:44.805Z,4.80
2018-12-12T22:19:15.869Z,4.00
2018-12-12T22:21:48.011Z,4.20
2018-12-12T22:24:19.085Z,3.90
2018-12-12T22:26:50.172Z,4.20
2018-12-12T22:29:21.248Z,4.03
2018-12-12T22:31:52.349Z,4.70
2018-12-12T22:34:23.439Z,4.30
2018-12-12T22:36:54.528Z,4.70
2018-12-12T22:39:25.541Z,4.60
2018-12-12T22:41:56.624Z,4.73
2018-12-12T22:44:27.683Z,4.47
2018-12-12T22:46:58.767Z,4.77
2018-12-12T22:49:29.894Z,4.67
2018-12-12T22:52:00.991Z,5.20
2018-12-12T22:54:32.065Z,4.67
2018-12-12T22:57:03.148Z,5.10
2018-12-12T22:59:34.216Z,7.07
2018-12-12T23:02:05.296Z,5.00
2018-12-12T23:04:36.356Z,5.80
2018-12-12T23:07:07.468Z,6.23
2018-12-12T23:09:38.536Z,5.30
2018-12-12T23:12:09.625Z,4.87
2018-12-12T23:14:40.728Z,5.80
2018-12-12T23:17:11.697Z,5.40
2018-12-12T23:19:42.755Z,4.77
2018-12-12T23:22:13.848Z,5.17
2018-12-12T23:24:46.066Z,5.93
2018-12-12T23:27:17.160Z,4.30
2018-12-12T23:29:48.160Z,5.00
2018-12-12T23:32:19.604Z,5.10
2018-12-12T23:34:50.663Z,5.20
2018-12-12T23:37:21.750Z,5.17
2018-12-12T23:39:52.808Z,4.10
2018-12-12T23:42:23.895Z,5.00
2018-12-12T23:44:54.962Z,4.83
2018-12-12T23:47:26.516Z,4.73
2018-12-12T23:49:57.751Z,5.57
2018-12-12T23:52:28.857Z,6.20
2018-12-12T23:54:59.916Z,4.90
2018-12-12T23:57:31.017Z,4.80
